Time;durP1;ratioP1;P1;durP2;ratioP2;P2;SDS_P1;SDS_P2;PMS_P1;PMS_P2;Temp;Humidity;BMP_temperature;BMP_pressure;BME280_temperature;BME280_humidity;BME280_pressure;Samples;Min_cycle;Max_cycle;Signal;HPM_P1;HPM_P2
2023/08/08 00:05:08;;;;;;;3.35;0.73;;;;;;;20.12;50.09;101489.47;16190843;19;129464;-64
2023/08/08 00:10:30;;;;;;;3.22;0.90;;;;;;;20.13;50.13;101499.47;16187958;19;128482;-62
2023/08/08 00:15:52;;;;;;;1.35;0.63;;;;;;;20.13;49.94;101493.09;16190948;19;128547;-63
2023/08/08 00:21:14;;;;;;;2.67;0.55;;;;;;;20.13;50.14;101487.53;16190899;19;129946;-63
2023/08/08 00:26:35;;;;;;;1.60;0.63;;;;;;;20.11;50.19;101479.47;16200573;19;129234;-67
2023/08/08 00:31:57;;;;;;;2.30;0.60;;;;;;;20.10;49.97;101477.78;16190874;19;130401;-65
2023/08/08 00:37:20;;;;;;;2.47;0.70;;;;;;;20.11;50.15;101492.50;16177328;19;133895;-64
2023/08/08 00:42:41;;;;;;;1.27;0.32;;;;;;;20.10;50.09;101485.25;16182424;19;129107;-64
2023/08/08 00:48:04;;;;;;;0.60;0.28;;;;;;;20.09;49.75;101491.88;16185323;19;130701;-64
2023/08/08 00:53:28;;;;;;;0.85;0.40;;;;;;;20.08;49.77;101487.41;16186390;19;130296;-64
2023/08/08 00:58:50;;;;;;;1.90;0.57;;;;;;;20.07;49.96;101477.38;16188797;19;129483;-64
2023/08/08 01:04:12;;;;;;;1.63;0.40;;;;;;;20.06;49.95;101481.28;16182703;19;129922;-64
2023/08/08 01:09:57;;;;;;;2.75;0.60;;;;;;;20.07;49.74;101478.25;16162336;19;129758;-64
2023/08/08 01:15:19;;;;;;;3.03;0.50;;;;;;;20.05;49.91;101479.59;16180810;19;130263;-64
2023/08/08 01:20:45;;;;;;;0.98;0.50;;;;;;;20.05;50.19;101469.31;16179761;19;128997;-65
2023/08/08 01:26:07;;;;;;;1.55;0.77;;;;;;;20.04;49.86;101467.63;16182840;19;130038;-64
2023/08/08 01:31:28;;;;;;;0.93;0.30;;;;;;;20.04;49.79;101466.78;16136506;19;129722;-64
2023/08/08 01:37:23;;;;;;;3.00;0.50;;;;;;;20.04;49.78;101466.78;16124694;19;130968;-62
2023/08/08 01:42:47;;;;;;;0.98;0.30;;;;;;;20.03;50.13;101456.75;16113020;19;132236;-63
2023/08/08 01:48:10;;;;;;;0.50;0.40;;;;;;;20.03;49.77;101451.19;16109242;19;129829;-64
2023/08/08 01:53:32;;;;;;;2.53;0.40;;;;;;;20.01;49.95;101453.38;16108576;19;130990;-64
2023/08/08 01:58:54;;;;;;;0.90;0.40;;;;;;;20.01;50.18;101456.16;16114538;19;130470;-63
2023/08/08 02:04:16;;;;;;;0.82;0.50;;;;;;;19.99;49.77;101443.34;16108028;19;130008;-63
2023/08/08 02:09:38;;;;;;;0.38;0.30;;;;;;;19.99;49.75;101448.03;16087314;19;130343;-64
2023/08/08 02:15:00;;;;;;;0.95;0.20;;;;;;;19.99;49.79;101442.50;16102086;19;129791;-63
2023/08/08 02:20:22;;;;;;;0.98;0.35;;;;;;;19.98;49.89;101438.84;16099421;19;130726;-68
2023/08/08 02:25:44;;;;;;;1.10;0.50;;;;;;;19.97;49.75;101442.72;16105005;19;131152;-64
2023/08/08 02:31:06;;;;;;;0.82;0.40;;;;;;;19.97;49.94;101439.94;16109712;19;129873;-65
2023/08/08 02:36:28;;;;;;;0.50;0.35;;;;;;;19.97;49.74;101428.00;16114964;19;129793;-63
2023/08/08 02:41:50;;;;;;;2.10;0.30;;;;;;;19.96;49.69;101406.88;16102451;19;131088;-64
2023/08/08 02:47:12;;;;;;;1.02;0.40;;;;;;;19.95;50.16;101407.94;16104250;19;129919;-64
2023/08/08 02:52:34;;;;;;;1.25;0.30;;;;;;;19.95;49.69;101419.88;16105722;19;129583;-59
2023/08/08 02:57:56;;;;;;;0.98;0.30;;;;;;;19.94;50.14;101414.59;16104261;19;129816;-64
2023/08/08 03:03:18;;;;;;;1.23;0.50;;;;;;;19.94;50.14;101406.25;16104555;19;129902;-64
2023/08/08 03:08:40;;;;;;;1.08;0.40;;;;;;;19.93;49.64;101410.13;16100911;19;133131;-64
2023/08/08 03:14:02;;;;;;;1.25;0.32;;;;;;;19.92;50.01;101395.41;16106083;19;131260;-64
2023/08/08 03:19:24;;;;;;;1.10;0.40;;;;;;;19.92;49.75;101400.97;16117675;19;130459;-64
2023/08/08 03:24:46;;;;;;;1.52;0.30;;;;;;;19.90;49.79;101397.56;16118032;19;130663;-64
2023/08/08 03:30:09;;;;;;;1.20;0.30;;;;;;;19.91;50.00;101395.63;16118573;19;130717;-64
2023/08/08 03:35:31;;;;;;;1.10;0.45;;;;;;;19.91;49.78;101390.06;16115688;19;130251;-64
2023/08/08 03:40:53;;;;;;;0.50;0.30;;;;;;;19.90;49.71;101400.34;16102744;19;133444;-66
2023/08/08 03:46:15;;;;;;;0.60;0.50;;;;;;;19.89;49.83;101395.88;16114222;19;130791;-64
2023/08/08 03:51:37;;;;;;;2.83;0.40;;;;;;;19.89;49.60;101382.00;16112550;19;129997;-64
2023/08/08 03:57:00;;;;;;;1.48;0.38;;;;;;;19.88;50.00;101402.53;16118083;19;131761;-64
2023/08/08 04:02:25;;;;;;;3.75;0.60;;;;;;;19.88;50.00;101391.41;16120854;19;129445;-64
2023/08/08 04:07:47;;;;;;;1.90;0.50;;;;;;;19.88;49.98;101385.03;16120077;19;130022;-64
2023/08/08 04:13:10;;;;;;;1.73;0.60;;;;;;;19.88;49.74;101385.03;16108287;19;130360;-64
2023/08/08 04:18:33;;;;;;;0.70;0.40;;;;;;;19.86;49.55;101365.81;16122116;19;130715;-64
2023/08/08 04:23:54;;;;;;;0.73;0.40;;;;;;;19.86;50.02;101368.59;16118634;19;129568;-64
2023/08/08 04:29:16;;;;;;;1.67;0.40;;;;;;;19.85;50.03;101369.69;16117961;19;129891;-64
2023/08/08 04:34:38;;;;;;;0.90;0.40;;;;;;;19.85;49.78;101380.78;16124862;19;129941;-63
2023/08/08 04:40:00;;;;;;;0.82;0.40;;;;;;;19.84;49.72;101381.88;16118059;19;131798;-65
2023/08/08 04:45:23;;;;;;;1.20;0.50;;;;;;;19.84;49.92;101390.19;16105679;19;131088;-63
2023/08/08 04:50:48;;;;;;;1.50;0.50;;;;;;;19.84;49.47;101390.19;16111475;19;131888;-63
2023/08/08 04:56:10;;;;;;;0.82;0.50;;;;;;;19.83;49.50;101386.59;16113278;19;129636;-63
2023/08/08 05:01:32;;;;;;;1.45;0.40;;;;;;;19.83;49.67;101388.50;16116556;19;130760;-63
2023/08/08 05:06:54;;;;;;;1.35;0.60;;;;;;;19.82;49.57;101381.28;16116864;19;130274;-64
2023/08/08 05:12:16;;;;;;;3.63;0.88;;;;;;;19.82;49.75;101384.03;16107529;19;132018;-65
2023/08/08 05:17:38;;;;;;;2.42;0.60;;;;;;;19.82;49.85;101386.81;16107458;19;130228;-64
2023/08/08 05:23:00;;;;;;;1.90;0.50;;;;;;;19.82;49.59;101386.81;16105649;19;133874;-63
2023/08/08 05:28:22;;;;;;;2.15;0.70;;;;;;;19.83;49.71;101400.47;16106931;19;130400;-62
2023/08/08 05:33:44;;;;;;;5.22;0.80;;;;;;;19.82;49.23;101409.03;16104364;19;129803;-62
2023/08/08 05:39:07;;;;;;;3.13;0.85;;;;;;;19.83;49.27;101410.72;16112834;19;129625;-62
2023/08/08 05:44:29;;;;;;;2.05;0.60;;;;;;;19.84;49.27;101406.88;16116846;19;129531;-61
2023/08/08 05:49:51;;;;;;;3.22;0.85;;;;;;;19.83;49.47;101413.50;16116232;19;129571;-62
2023/08/08 05:55:13;;;;;;;3.03;0.65;;;;;;;19.83;49.68;101413.50;16114289;19;130268;-61
2023/08/08 06:00:35;;;;;;;1.70;0.57;;;;;;;19.84;49.65;101423.53;16109169;19;130327;-61
2023/08/08 06:05:57;;;;;;;2.60;0.90;;;;;;;19.83;49.67;101419.91;16117301;19;129590;-62
2023/08/08 06:11:19;;;;;;;1.88;0.70;;;;;;;19.84;49.52;101427.16;16107774;19;130726;-61
2023/08/08 06:16:41;;;;;;;3.13;0.90;;;;;;;19.85;49.26;101419.66;16111653;19;130267;-62
2023/08/08 06:22:03;;;;;;;1.95;0.60;;;;;;;19.85;49.34;101430.78;16111851;19;129496;-62
2023/08/08 06:27:25;;;;;;;1.85;0.70;;;;;;;19.85;49.68;101425.22;16113767;19;131135;-61
2023/08/08 06:32:47;;;;;;;3.05;0.98;;;;;;;19.85;49.35;101430.78;16111391;19;130074;-61
2023/08/08 06:38:09;;;;;;;4.70;0.70;;;;;;;19.86;49.46;101431.63;16108883;19;128994;-62
2023/08/08 06:43:31;;;;;;;2.85;0.90;;;;;;;19.87;49.12;101430.53;16112307;19;130041;-61
2023/08/08 06:48:56;;;;;;;3.65;1.17;;;;;;;19.89;49.66;101437.53;16120508;19;129736;-61
2023/08/08 06:54:18;;;;;;;3.30;0.70;;;;;;;19.92;49.39;101431.50;16126995;19;129416;-61
2023/08/08 06:59:41;;;;;;;3.63;0.90;;;;;;;19.96;49.23;101435.47;16127035;19;129358;-62
2023/08/08 07:05:03;;;;;;;3.92;0.88;;;;;;;20.01;49.30;101433.94;16123549;19;131016;-61
2023/08/08 07:10:26;;;;;;;5.45;0.98;;;;;;;20.05;49.48;101415.69;16120240;19;132962;-62
2023/08/08 07:15:49;;;;;;;2.30;0.88;;;;;;;20.10;49.50;101404.69;16124318;19;129902;-60
2023/08/08 07:21:11;;;;;;;2.25;0.70;;;;;;;20.14;49.40;101405.91;16124125;19;130622;-61
2023/08/08 07:26:33;;;;;;;3.03;1.10;;;;;;;20.14;49.18;101400.34;16119807;19;129415;-58
2023/08/08 07:31:55;;;;;;;2.25;1.00;;;;;;;20.16;49.32;101406.50;16115987;19;129726;-63
2023/08/08 07:37:18;;;;;;;4.20;0.90;;;;;;;20.17;49.39;101405.41;16122493;19;130338;-61
2023/08/08 07:42:40;;;;;;;2.78;0.75;;;;;;;20.17;49.73;101410.97;16120310;19;130166;-62
2023/08/08 07:48:01;;;;;;;5.13;0.90;;;;;;;20.17;49.32;101410.97;16119871;19;129942;-60
2023/08/08 07:53:23;;;;;;;3.00;0.90;;;;;;;20.16;49.79;101409.28;16118563;19;129515;-60
2023/08/08 07:58:45;;;;;;;5.22;0.88;;;;;;;20.14;49.33;101417.00;16121008;19;133125;-61
2023/08/08 08:04:07;;;;;;;6.53;1.38;;;;;;;20.14;49.62;101405.91;16120454;19;130622;-63
2023/08/08 08:09:29;;;;;;;9.40;1.27;;;;;;;20.12;49.75;101410.84;16122518;19;130298;-61
2023/08/08 08:14:51;;;;;;;16.13;1.90;;;;;;;20.11;49.85;101400.81;16122966;19;129482;-64
2023/08/08 08:20:13;;;;;;;9.65;1.30;;;;;;;20.10;49.25;101410.25;16117201;19;130724;-63
2023/08/08 08:25:35;;;;;;;8.48;1.00;;;;;;;20.10;49.18;101413.03;16118619;19;129497;-64
2023/08/08 08:30:57;;;;;;;9.20;1.70;;;;;;;20.12;49.22;101405.28;16116129;19;130329;-64
2023/08/08 08:36:20;;;;;;;7.00;1.20;;;;;;;20.14;49.03;101403.94;16118932;19;130383;-64
2023/08/08 08:41:48;;;;;;;5.25;1.27;;;;;;;20.16;48.82;101408.41;16114692;19;129776;-64
2023/08/08 08:47:13;;;;;;;6.30;1.27;;;;;;;20.18;48.76;101411.81;16120160;19;129390;-64
2023/08/08 08:52:35;;;;;;;4.97;1.30;;;;;;;20.16;48.95;101414.84;16116617;19;130886;-63
2023/08/08 08:57:57;;;;;;;4.65;1.55;;;;;;;20.14;49.03;101417.00;16118509;19;130010;-62
2023/08/08 09:03:19;;;;;;;3.90;1.30;;;;;;;20.13;48.99;101409.75;16118275;19;130396;-63
2023/08/08 09:08:42;;;;;;;6.05;1.40;;;;;;;20.12;49.33;101410.84;16118731;19;130599;-63
2023/08/08 09:14:04;;;;;;;3.92;1.20;;;;;;;20.11;49.24;101410.03;16116881;19;129432;-63
2023/08/08 09:19:26;;;;;;;6.20;1.25;;;;;;;20.12;48.81;101408.06;16114541;19;129136;-62
2023/08/08 09:24:48;;;;;;;6.80;1.10;;;;;;;20.12;49.13;101408.06;16116421;19;130425;-62
2023/08/08 09:30:11;;;;;;;2.70;0.90;;;;;;;20.12;48.73;101416.41;16114792;19;130997;-64
2023/08/08 09:35:33;;;;;;;3.88;0.90;;;;;;;20.14;49.07;101417.00;16114060;19;129787;-62
2023/08/08 09:40:55;;;;;;;3.30;0.95;;;;;;;20.14;48.82;101417.00;16117763;19;130543;-62
2023/08/08 09:46:22;;;;;;;3.40;1.05;;;;;;;20.14;48.63;101431.72;16117618;19;130731;-62
2023/08/08 09:51:46;;;;;;;2.65;1.02;;;;;;;20.14;48.65;101444.78;16119001;19;129308;-62
2023/08/08 09:57:08;;;;;;;3.92;0.98;;;;;;;20.17;48.96;101427.63;16114985;19;129890;-62
2023/08/08 10:02:32;;;;;;;4.05;1.02;;;;;;;20.19;48.81;101425.44;16116114;19;130239;-63
2023/08/08 10:07:55;;;;;;;3.45;1.02;;;;;;;20.21;48.84;101428.81;16117766;19;130743;-63
2023/08/08 10:13:25;;;;;;;5.75;1.10;;;;;;;20.27;48.83;101435.31;16116014;19;129970;-63
2023/08/08 10:18:56;;;;;;;4.50;0.90;;;;;;;20.28;48.39;101440.66;16115391;19;130297;-64
2023/08/08 10:24:20;;;;;;;2.88;0.90;;;;;;;20.29;48.73;101430.38;16128471;19;129716;-62
2023/08/08 10:29:46;;;;;;;2.28;0.90;;;;;;;20.34;48.62;101433.28;16131058;19;130959;-64
2023/08/08 10:35:11;;;;;;;3.45;1.30;;;;;;;20.35;48.51;101434.97;16128801;19;129612;-64
2023/08/08 10:40:33;;;;;;;3.30;1.33;;;;;;;20.36;48.60;101433.00;16128974;19;129361;-64
2023/08/08 10:46:02;;;;;;;3.33;1.10;;;;;;;20.38;48.44;101420.56;16129861;19;130779;-65
2023/08/08 10:51:39;;;;;;;2.80;1.00;;;;;;;20.43;48.43;101408.72;16124431;19;130247;-63
2023/08/08 10:57:01;;;;;;;2.97;0.90;;;;;;;20.47;47.98;101392.41;16127021;19;129563;-61
2023/08/08 11:02:24;;;;;;;3.40;0.88;;;;;;;20.49;48.37;101399.38;16127034;19;129579;-55
2023/08/08 11:07:47;;;;;;;3.22;1.27;;;;;;;20.49;48.50;101391.03;16128572;19;130063;-62
2023/08/08 11:13:09;;;;;;;2.50;0.90;;;;;;;20.45;48.06;101399.03;16123646;19;129713;-62
2023/08/08 11:18:31;;;;;;;1.38;0.75;;;;;;;20.45;48.13;101406.50;16118052;19;130356;-62
2023/08/08 11:23:53;;;;;;;2.47;1.02;;;;;;;20.44;48.26;101402.91;16122768;19;129511;-62
2023/08/08 11:29:16;;;;;;;1.35;0.90;;;;;;;20.43;48.42;101397.59;16122972;19;129930;-64
2023/08/08 11:34:37;;;;;;;2.78;0.70;;;;;;;20.40;48.38;101403.66;16120617;19;130214;-69
2023/08/08 11:40:00;;;;;;;1.60;0.80;;;;;;;20.38;48.33;101412.22;16119581;19;130485;-72
2023/08/08 11:45:22;;;;;;;1.50;0.90;;;;;;;20.41;48.28;101414.50;16119254;19;130602;-67
2023/08/08 11:50:46;;;;;;;2.38;0.73;;;;;;;20.42;48.00;101410.66;16124969;19;130794;-65
2023/08/08 11:56:08;;;;;;;2.45;0.90;;;;;;;20.44;48.40;101404.81;16122883;19;129738;-65
2023/08/08 12:01:32;;;;;;;2.83;1.13;;;;;;;20.45;48.19;101412.94;16123066;19;130252;-65
2023/08/08 12:07:02;;;;;;;2.22;0.70;;;;;;;20.46;48.13;101405.44;16119374;19;130997;-62
2023/08/08 12:12:26;;;;;;;3.28;1.10;;;;;;;20.45;48.23;101398.19;16121999;19;130293;-60
2023/08/08 12:17:48;;;;;;;1.48;0.70;;;;;;;20.42;47.87;101396.75;16120044;19;130661;-58
2023/08/08 12:23:12;;;;;;;2.75;1.30;;;;;;;20.41;48.06;101408.13;16112369;19;130750;-59
2023/08/08 12:28:34;;;;;;;3.67;1.10;;;;;;;20.41;48.14;101405.34;16117058;19;129942;-56
2023/08/08 12:33:56;;;;;;;7.65;1.00;;;;;;;20.48;47.60;101391.31;16120051;19;129339;-58
2023/08/08 12:39:18;;;;;;;3.63;1.10;;;;;;;20.57;47.64;101379.53;16120967;19;129619;-58
2023/08/08 12:44:40;;;;;;;2.35;1.00;;;;;;;20.63;47.05;101382.41;16115910;19;130520;-56
2023/08/08 12:50:05;;;;;;;4.93;1.00;;;;;;;20.64;47.27;101370.19;16113881;19;130329;-62
2023/08/08 12:55:27;;;;;;;;;;;;;;;20.64;47.27;101365.47;16117226;19;130080;-62
2023/08/08 13:00:49;;;;;;;3.00;0.88;;;;;;;20.69;47.24;101373.91;16117459;19;131374;-61
2023/08/08 13:06:13;;;;;;;3.45;1.10;;;;;;;20.68;47.30;101388.03;16113082;19;129550;-60
2023/08/08 13:11:35;;;;;;;2.60;0.85;;;;;;;20.67;47.51;101386.38;16117964;19;130844;-60
2023/08/08 13:16:57;;;;;;;1.52;0.80;;;;;;;20.66;47.57;101379.13;16117473;19;129434;-61
2023/08/08 13:22:19;;;;;;;6.57;0.93;;;;;;;20.65;47.56;101383.00;16114268;19;131254;-60
2023/08/08 13:27:42;;;;;;;2.80;0.70;;;;;;;20.64;47.57;101386.88;16116165;19;131735;-61
2023/08/08 13:33:04;;;;;;;3.30;1.17;;;;;;;20.62;47.46;101386.28;16113175;19;129681;-60
2023/08/08 13:38:27;;;;;;;2.00;1.00;;;;;;;20.60;47.74;101387.38;16107280;19;129690;-60
2023/08/08 13:43:49;;;;;;;1.77;0.85;;;;;;;20.59;47.78;101388.47;16105207;19;129866;-60
2023/08/08 13:49:10;;;;;;;1.80;0.80;;;;;;;20.62;47.88;101391.84;16111831;19;130825;-60
2023/08/08 13:54:32;;;;;;;2.10;1.10;;;;;;;20.63;48.31;101397.13;16111748;19;131129;-60
2023/08/08 13:59:54;;;;;;;4.30;1.10;;;;;;;20.62;48.42;101389.06;16108869;19;130173;-60
2023/08/08 14:05:16;;;;;;;1.25;0.70;;;;;;;20.62;48.11;101384.31;16107389;19;129846;-60
2023/08/08 14:10:41;;;;;;;4.10;1.37;;;;;;;20.60;48.26;101384.59;16114202;19;129389;-60
2023/08/08 14:16:03;;;;;;;2.13;1.00;;;;;;;20.60;48.40;101386.53;16113880;19;129465;-60
2023/08/08 14:21:25;;;;;;;2.40;0.82;;;;;;;20.59;48.44;101390.41;16105151;19;132429;-60
2023/08/08 14:26:47;;;;;;;1.92;1.00;;;;;;;20.59;48.79;101385.69;16108309;19;129527;-61
2023/08/08 14:32:10;;;;;;;4.53;1.10;;;;;;;20.60;49.19;101370.69;16108662;19;131189;-65
2023/08/08 14:37:32;;;;;;;6.35;1.05;;;;;;;20.64;48.64;101356.31;16109703;19;130058;-61
2023/08/08 14:42:54;;;;;;;6.30;1.02;;;;;;;20.65;48.36;101350.47;16108247;19;130852;-61
2023/08/08 14:48:17;;;;;;;9.02;1.00;;;;;;;20.68;48.19;101360.25;16109329;19;129693;-60
2023/08/08 14:53:39;;;;;;;7.90;0.80;;;;;;;20.70;48.03;101352.50;16098623;19;131252;-61
2023/08/08 14:59:01;;;;;;;8.02;1.00;;;;;;;20.71;48.02;101359.75;16107164;19;130912;-61
2023/08/08 15:04:23;;;;;;;8.70;1.13;;;;;;;20.72;48.12;101375.34;16104867;19;131841;-61
2023/08/08 15:09:45;;;;;;;11.23;1.35;;;;;;;20.71;47.73;101379.22;16116568;19;131555;-61
2023/08/08 15:15:08;;;;;;;6.70;1.27;;;;;;;20.71;47.73;101382.00;16127447;19;129819;-62
2023/08/08 15:20:31;;;;;;;3.05;0.80;;;;;;;20.69;47.29;101381.41;16120760;19;130840;-62
2023/08/08 15:25:54;;;;;;;6.30;1.23;;;;;;;20.67;47.26;101386.38;16129502;19;129511;-61
2023/08/08 15:31:17;;;;;;;6.70;1.20;;;;;;;20.66;47.63;101384.69;16123601;19;130340;-62
2023/08/08 15:36:39;;;;;;;9.95;1.20;;;;;;;20.65;47.84;101383.00;16120881;19;130890;-62
2023/08/08 15:42:01;;;;;;;10.52;1.25;;;;;;;20.65;47.66;101383.00;16112370;19;130243;-63
2023/08/08 15:47:23;;;;;;;9.20;1.30;;;;;;;20.63;47.59;101387.97;16122850;19;129981;-63
2023/08/08 15:52:45;;;;;;;11.00;1.27;;;;;;;20.64;47.58;101387.72;16119036;19;129714;-63
2023/08/08 15:58:07;;;;;;;5.50;1.73;;;;;;;20.64;47.93;101386.88;16117073;19;130342;-62
2023/08/08 16:03:30;;;;;;;11.07;1.20;;;;;;;20.62;48.11;101389.88;16116859;19;130732;-62
2023/08/08 16:08:52;;;;;;;9.77;1.70;;;;;;;20.60;48.19;101389.31;16114057;19;131194;-62
2023/08/08 16:14:14;;;;;;;8.35;1.20;;;;;;;20.57;48.27;101396.19;16115351;19;129975;-61
2023/08/08 16:19:37;;;;;;;3.95;1.00;;;;;;;20.52;48.44;101401.69;16114872;19;131040;-61
2023/08/08 16:24:59;;;;;;;5.85;1.20;;;;;;;20.49;48.33;101402.16;16112711;19;130623;-59
2023/08/08 16:30:21;;;;;;;6.35;1.20;;;;;;;20.48;48.77;101400.47;16113527;19;129629;-60
2023/08/08 16:35:43;;;;;;;7.53;1.20;;;;;;;20.46;48.84;101391.53;16112912;19;133137;-60
2023/08/08 16:41:05;;;;;;;5.97;1.48;;;;;;;20.47;48.77;101381.28;16112526;19;130801;-60
2023/08/08 16:46:28;;;;;;;18.35;2.13;;;;;;;20.48;48.49;101381.00;16111589;19;129844;-62
2023/08/08 16:51:50;;;;;;;10.02;1.52;;;;;;;20.47;48.99;101364.59;16111437;19;129645;-62
2023/08/08 16:57:12;;;;;;;14.52;1.60;;;;;;;20.46;48.96;101366.53;16113563;19;130001;-62
2023/08/08 17:02:35;;;;;;;20.13;1.83;;;;;;;20.44;49.06;101375.13;16108709;19;130646;-59
2023/08/08 17:07:57;;;;;;;10.30;1.98;;;;;;;20.43;49.15;101378.16;16109808;19;131220;-61
2023/08/08 17:13:19;;;;;;;14.73;1.92;;;;;;;20.41;49.03;101378.38;16109456;19;131223;-59
2023/08/08 17:18:41;;;;;;;7.82;1.48;;;;;;;20.39;49.42;101375.00;16114542;19;130426;-59
2023/08/08 17:24:03;;;;;;;12.45;1.73;;;;;;;20.38;49.77;101369.69;16104178;19;132412;-59
2023/08/08 17:29:25;;;;;;;6.80;1.75;;;;;;;20.38;50.11;101358.59;16104799;19;131180;-62
2023/08/08 17:34:47;;;;;;;10.18;1.42;;;;;;;20.41;50.02;101360.88;16112682;19;132294;-59
2023/08/08 17:40:10;;;;;;;15.02;1.60;;;;;;;20.45;50.04;101350.94;16114453;19;129618;-60
2023/08/08 17:45:32;;;;;;;7.70;1.45;;;;;;;20.47;49.92;101353.47;16114252;19;130969;-73
2023/08/08 17:50:55;;;;;;;8.55;1.70;;;;;;;20.48;49.90;101353.22;16114668;19;130940;-68
2023/08/08 17:56:17;;;;;;;8.55;1.42;;;;;;;20.49;49.73;101354.91;16116076;19;130755;-62
2023/08/08 18:01:39;;;;;;;7.88;1.33;;;;;;;20.51;49.84;101349.09;16111461;19;130871;-65
2023/08/08 18:07:01;;;;;;;8.93;1.35;;;;;;;20.51;50.13;101344.41;16110588;19;129453;-61
2023/08/08 18:12:23;;;;;;;11.95;1.40;;;;;;;20.50;49.69;101339.94;16113247;19;129961;-60
2023/08/08 18:17:44;;;;;;;7.32;0.95;;;;;;;20.52;50.00;101332.19;16113367;19;129534;-61
2023/08/08 18:23:07;;;;;;;7.95;1.42;;;;;;;20.51;50.14;101327.72;16110679;19;131298;-60
2023/08/08 18:28:30;;;;;;;8.43;1.20;;;;;;;20.52;49.96;101323.84;16110533;19;130593;-63
2023/08/08 18:34:02;;;;;;;13.95;1.50;;;;;;;20.53;50.35;101327.47;16107671;19;131361;-58
2023/08/08 18:39:24;;;;;;;5.07;1.20;;;;;;;20.51;50.37;101322.16;16111285;19;129699;-58
2023/08/08 18:44:46;;;;;;;4.07;1.02;;;;;;;20.54;50.34;101312.47;16122175;19;129786;-66
2023/08/08 18:50:09;;;;;;;7.95;0.98;;;;;;;20.56;50.46;101301.94;16125077;19;130425;-60
2023/08/08 18:55:31;;;;;;;7.47;1.30;;;;;;;20.58;50.55;101305.31;16126208;19;129473;-60
2023/08/08 19:00:53;;;;;;;6.97;1.17;;;;;;;20.58;50.53;101311.72;16118720;19;129871;-70
2023/08/08 19:06:16;;;;;;;8.15;1.25;;;;;;;20.60;50.33;101301.19;16118150;19;131520;-65
2023/08/08 19:11:38;;;;;;;6.35;1.20;;;;;;;20.60;50.54;101292.84;16120579;19;130629;-66
2023/08/08 19:16:59;;;;;;;6.20;0.95;;;;;;;20.62;50.53;101302.88;16111205;19;130873;-65
2023/08/08 19:22:21;;;;;;;7.90;1.27;;;;;;;20.60;50.45;101303.16;16122438;19;130258;-67
2023/08/08 19:27:43;;;;;;;7.97;1.38;;;;;;;20.59;50.74;101313.41;16122236;19;130436;-65
2023/08/08 19:33:08;;;;;;;6.05;1.00;;;;;;;20.58;50.54;101322.84;16121104;19;134053;-66
2023/08/08 19:38:30;;;;;;;11.20;1.30;;;;;;;20.55;50.61;101305.81;16119326;19;129606;-67
2023/08/08 19:43:52;;;;;;;22.02;1.70;;;;;;;20.55;50.37;101301.13;16119878;19;129453;-65
2023/08/08 19:49:14;;;;;;;34.65;3.00;;;;;;;20.53;50.67;101283.84;16115788;19;129564;-65
2023/08/08 19:54:36;;;;;;;15.60;1.77;;;;;;;20.53;50.42;101286.63;16118892;19;129360;-63
2023/08/08 19:59:58;;;;;;;22.58;1.70;;;;;;;20.52;50.66;101284.94;16119036;19;130517;-63
2023/08/08 20:05:21;;;;;;;13.65;1.35;;;;;;;20.53;50.79;101275.50;16117305;19;131044;-65
2023/08/08 20:10:43;;;;;;;11.60;1.85;;;;;;;20.51;50.86;101274.91;16122550;19;130512;-68
2023/08/08 20:16:05;;;;;;;11.82;1.10;;;;;;;20.52;50.85;101272.97;16117743;19;134944;-67
2023/08/08 20:21:27;;;;;;;8.00;1.55;;;;;;;20.52;50.94;101272.97;16114253;19;131090;-66
2023/08/08 20:26:49;;;;;;;17.33;1.80;;;;;;;20.51;51.03;101271.28;16112472;19;130154;-63
2023/08/08 20:32:11;;;;;;;15.13;1.40;;;;;;;20.50;50.44;101276.00;16112875;19;131140;-62
2023/08/08 20:37:33;;;;;;;17.67;1.17;;;;;;;20.49;50.58;101274.31;16110901;19;129641;-62
2023/08/08 20:42:55;;;;;;;15.57;1.67;;;;;;;20.48;50.84;101263.47;16120288;19;131011;-63
2023/08/08 20:48:17;;;;;;;9.98;1.88;;;;;;;20.47;50.65;101262.59;16114312;19;129616;-62
2023/08/08 20:53:39;;;;;;;10.35;1.45;;;;;;;20.45;50.70;101262.00;16110301;19;129904;-63
2023/08/08 20:59:01;;;;;;;9.90;1.50;;;;;;;20.44;50.86;101260.31;16112392;19;129510;-62
2023/08/08 21:04:23;;;;;;;9.20;1.52;;;;;;;20.42;51.11;101243.91;16114667;19;129917;-64
2023/08/08 21:09:45;;;;;;;7.45;0.88;;;;;;;20.42;50.96;101248.63;16110663;19;133110;-63
2023/08/08 21:15:07;;;;;;;4.80;1.05;;;;;;;20.41;50.75;101244.16;16109933;19;130694;-65
2023/08/08 21:20:29;;;;;;;8.65;1.63;;;;;;;20.39;51.20;101233.28;16111784;19;130387;-63
2023/08/08 21:25:51;;;;;;;8.35;1.48;;;;;;;20.39;51.09;101224.94;16110167;19;129451;-63
2023/08/08 21:31:13;;;;;;;5.07;0.98;;;;;;;20.39;50.85;101221.34;16108588;19;130490;-63
2023/08/08 21:36:35;;;;;;;8.52;0.98;;;;;;;20.38;50.84;101222.44;16109469;19;130834;-62
2023/08/08 21:41:57;;;;;;;5.78;1.00;;;;;;;20.37;50.91;101204.06;16106461;19;130555;-63
2023/08/08 21:47:20;;;;;;;6.07;1.20;;;;;;;20.36;51.27;101196.81;16102598;19;131051;-64
2023/08/08 21:52:43;;;;;;;6.88;0.90;;;;;;;20.36;51.24;101202.38;16103224;19;131536;-62
2023/08/08 21:58:05;;;;;;;8.23;0.88;;;;;;;20.35;51.15;101204.34;16104345;19;131178;-64
2023/08/08 22:03:27;;;;;;;8.80;1.05;;;;;;;20.35;51.15;101209.03;16103358;19;130982;-64
2023/08/08 22:08:49;;;;;;;3.15;0.90;;;;;;;20.33;51.30;101202.88;16111065;19;129390;-65
2023/08/08 22:14:10;;;;;;;8.20;1.30;;;;;;;20.31;51.03;101182.88;16108613;19;131213;-64
2023/08/08 22:19:32;;;;;;;3.25;0.88;;;;;;;20.29;50.97;101180.31;16110595;19;129446;-65
2023/08/08 22:24:54;;;;;;;2.60;1.27;;;;;;;20.27;51.18;101188.91;16102062;19;130254;-64
2023/08/08 22:30:16;;;;;;;2.45;0.80;;;;;;;20.26;51.39;101203.91;16098787;19;130969;-64
2023/08/08 22:35:39;;;;;;;3.10;0.80;;;;;;;20.26;51.19;101194.69;16099072;19;131547;-64
2023/08/08 22:41:01;;;;;;;2.05;0.90;;;;;;;20.25;50.85;101191.09;16104533;19;129396;-65
2023/08/08 22:46:23;;;;;;;3.45;0.80;;;;;;;20.24;50.94;101186.63;16100494;19;131081;-67
2023/08/08 22:51:49;;;;;;;1.20;0.60;;;;;;;20.23;51.23;101196.06;16108909;19;130196;-64
2023/08/08 22:57:11;;;;;;;1.98;0.65;;;;;;;20.22;51.09;101191.59;16107119;19;129470;-65
2023/08/08 23:02:34;;;;;;;2.42;0.98;;;;;;;20.22;50.81;101187.97;16100763;19;130887;-65
2023/08/08 23:07:56;;;;;;;4.03;0.90;;;;;;;20.21;50.96;101189.91;16106354;19;129546;-65
2023/08/08 23:13:18;;;;;;;3.33;0.70;;;;;;;20.20;51.29;101182.66;16106202;19;130343;-64
2023/08/08 23:18:40;;;;;;;3.58;0.82;;;;;;;20.19;51.03;101180.97;16107393;19;130606;-66
2023/08/08 23:24:02;;;;;;;2.38;0.80;;;;;;;20.19;51.24;101169.88;16106178;19;130346;-66
2023/08/08 23:29:24;;;;;;;1.25;0.60;;;;;;;20.19;51.06;101174.59;16110657;19;129836;-66
2023/08/08 23:34:46;;;;;;;1.95;0.80;;;;;;;20.17;51.17;101163.75;16125355;19;130138;-66
2023/08/08 23:40:09;;;;;;;2.65;0.70;;;;;;;20.17;50.85;101163.75;16124103;19;130952;-66
2023/08/08 23:45:31;;;;;;;1.50;0.77;;;;;;;20.17;51.19;101166.53;16122686;19;130389;-66
2023/08/08 23:50:55;;;;;;;2.33;0.65;;;;;;;20.15;51.42;101165.91;16122503;19;130823;-65
2023/08/08 23:56:17;;;;;;;1.83;0.50;;;;;;;20.16;50.92;101164.84;16116721;19;131566;-66
